createdAt,value
2019-04-07T00:00:01.387Z,967.93
2019-04-07T00:05:11.170Z,967.92
2019-04-07T00:10:01.735Z,968.08
2019-04-07T00:15:01.059Z,967.95
2019-04-07T00:20:01.559Z,967.96
2019-04-07T00:25:01.052Z,967.91
2019-04-07T00:30:01.938Z,967.95
2019-04-07T00:35:01.040Z,967.94
2019-04-07T00:40:02.224Z,967.93
2019-04-07T00:45:02.158Z,967.91
2019-04-07T00:50:01.465Z,967.85
2019-04-07T00:55:01.468Z,967.84
2019-04-07T01:00:01.668Z,967.87
2019-04-07T01:05:01.703Z,967.83
2019-04-07T01:10:01.055Z,967.87
2019-04-07T01:15:01.407Z,967.77
2019-04-07T01:20:01.126Z,967.84
2019-04-07T01:25:01.132Z,967.71
2019-04-07T01:30:02.004Z,967.69
2019-04-07T01:35:01.301Z,967.59
2019-04-07T01:40:01.533Z,967.65
2019-04-07T01:45:01.483Z,967.57
2019-04-07T01:50:01.862Z,967.66
2019-04-07T01:55:01.069Z,967.61
2019-04-07T02:00:01.831Z,967.62
2019-04-07T02:05:01.084Z,967.54
2019-04-07T02:10:02.474Z,967.49
2019-04-07T02:15:02.285Z,967.52
2019-04-07T02:20:01.349Z,967.45
2019-04-07T02:25:01.794Z,967.44
2019-04-07T02:30:01.115Z,967.38
2019-04-07T02:35:01.530Z,967.40
2019-04-07T03:20:01.077Z,967.35
2019-04-07T03:25:01.098Z,967.32
2019-04-07T03:30:01.158Z,967.28
2019-04-07T03:35:03.123Z,967.22
2019-04-07T03:40:02.465Z,967.23
2019-04-07T03:45:01.142Z,967.17
2019-04-07T03:50:01.663Z,967.17
2019-04-07T03:55:01.381Z,967.12
2019-04-07T04:00:02.229Z,967.11
2019-04-07T04:05:01.067Z,967.20
2019-04-07T04:10:01.282Z,967.16
2019-04-07T04:15:01.719Z,967.20
2019-04-07T04:20:01.109Z,967.03
2019-04-07T04:25:01.221Z,967.18
2019-04-07T04:30:01.077Z,967.09
2019-04-07T04:35:01.429Z,967.14
2019-04-07T04:40:01.548Z,967.10
2019-04-07T04:45:02.319Z,967.11
2019-04-07T04:50:02.178Z,967.19
2019-04-07T04:55:02.003Z,967.18
2019-04-07T05:00:02.048Z,967.21
2019-04-07T05:05:02.418Z,967.29
2019-04-07T05:10:01.276Z,967.26
2019-04-07T05:15:01.719Z,967.35
2019-04-07T05:20:01.206Z,967.40
2019-04-07T05:25:02.227Z,967.46
2019-04-07T05:30:01.254Z,967.51
2019-04-07T05:35:02.317Z,967.44
2019-04-07T05:40:02.944Z,967.44
2019-04-07T05:45:01.330Z,967.51
2019-04-07T05:50:03.831Z,967.52
2019-04-07T05:55:01.472Z,967.56
2019-04-07T06:00:01.369Z,967.54
2019-04-07T06:05:01.222Z,967.58
2019-04-07T06:10:02.390Z,967.58
2019-04-07T06:15:01.891Z,967.57
2019-04-07T06:20:01.491Z,967.50
2019-04-07T06:25:02.695Z,967.63
2019-04-07T06:30:01.067Z,967.64
2019-04-07T06:35:01.843Z,967.65
2019-04-07T06:40:01.167Z,967.57
2019-04-07T06:45:01.612Z,967.63
2019-04-07T06:50:01.833Z,967.63
2019-04-07T06:55:01.149Z,967.56
2019-04-07T07:00:02.320Z,967.58
2019-04-07T07:05:01.715Z,967.57
2019-04-07T07:10:01.137Z,967.58
2019-04-07T07:15:03.301Z,967.67
2019-04-07T07:20:02.580Z,967.64
2019-04-07T07:25:01.500Z,967.72
2019-04-07T07:30:01.257Z,967.77
2019-04-07T07:35:01.227Z,967.72
2019-04-07T07:40:01.890Z,967.74
2019-04-07T07:45:02.575Z,967.73
2019-04-07T07:50:04.886Z,967.71
2019-04-07T07:55:03.030Z,967.60
2019-04-07T08:00:05.125Z,967.64
2019-04-07T08:05:03.112Z,967.71
2019-04-07T08:10:01.629Z,967.76
2019-04-07T08:15:01.809Z,967.74
2019-04-07T08:20:02.381Z,967.81
2019-04-07T08:25:02.413Z,967.74
2019-04-07T08:30:02.632Z,967.77
2019-04-07T08:35:05.296Z,967.77
2019-04-07T08:40:07.142Z,967.91
2019-04-07T08:45:09.437Z,967.80
2019-04-07T08:50:01.925Z,967.75
2019-04-07T08:55:01.855Z,967.74
2019-04-07T09:00:01.183Z,967.78
2019-04-07T09:05:02.617Z,967.73
2019-04-07T09:10:01.189Z,967.81
2019-04-07T09:15:03.799Z,967.76
2019-04-07T09:20:06.148Z,967.81
2019-04-07T09:25:06.276Z,967.74
2019-04-07T09:30:01.161Z,967.80
2019-04-07T09:35:01.911Z,967.75
2019-04-07T09:40:03.186Z,967.78
2019-04-07T09:45:01.991Z,967.73
2019-04-07T09:50:01.638Z,967.71
2019-04-07T09:55:01.287Z,967.71
2019-04-07T10:00:01.907Z,967.63
2019-04-07T10:05:01.096Z,967.68
2019-04-07T10:10:09.974Z,967.68
2019-04-07T10:15:01.992Z,967.76
2019-04-07T10:20:01.112Z,967.74
2019-04-07T10:25:01.170Z,967.73
2019-04-07T10:30:01.144Z,967.70
2019-04-07T10:35:01.161Z,967.72
2019-04-07T10:40:02.679Z,967.64
2019-04-07T10:45:01.096Z,967.60
2019-04-07T10:50:06.898Z,967.59
2019-04-07T10:55:01.222Z,967.57
2019-04-07T11:00:01.385Z,967.59
2019-04-07T11:05:01.886Z,967.53
2019-04-07T11:10:01.225Z,967.46
2019-04-07T11:15:01.228Z,967.34
2019-04-07T11:20:01.519Z,967.40
2019-04-07T11:25:01.170Z,967.44
2019-04-07T11:30:01.065Z,967.45
2019-04-07T11:35:01.105Z,967.42
2019-04-07T11:40:02.188Z,967.27
2019-04-07T11:45:01.060Z,967.40
2019-04-07T11:50:01.439Z,967.19
2019-04-07T11:55:01.999Z,967.19
2019-04-07T12:00:02.348Z,967.19
2019-04-07T12:05:01.081Z,967.13
2019-04-07T12:10:01.111Z,967.13
2019-04-07T12:15:01.085Z,967.10
2019-04-07T12:20:01.372Z,967.09
2019-04-07T12:25:03.151Z,967.17
2019-04-07T12:30:01.249Z,967.06
2019-04-07T12:35:01.158Z,967.14
2019-04-07T12:40:01.230Z,966.94
2019-04-07T12:45:01.767Z,967.03
2019-04-07T12:50:02.045Z,966.92
2019-04-07T12:55:01.629Z,967.04
2019-04-07T13:00:01.624Z,967.05
2019-04-07T13:05:02.898Z,967.07
2019-04-07T13:10:03.360Z,967.03
2019-04-07T13:15:01.202Z,966.99
2019-04-07T13:20:02.309Z,967.03
2019-04-07T13:25:01.763Z,967.02
2019-04-07T13:30:01.097Z,966.98
2019-04-07T13:35:01.069Z,966.99
2019-04-07T13:40:01.522Z,967.01
2019-04-07T13:45:02.867Z,966.99
2019-04-07T13:50:02.483Z,966.91
2019-04-07T13:55:04.574Z,967.07
2019-04-07T14:00:01.650Z,967.01
2019-04-07T14:05:04.907Z,966.94
2019-04-07T14:10:03.973Z,967.02
2019-04-07T14:15:01.388Z,967.03
2019-04-07T14:20:01.447Z,967.02
2019-04-07T14:25:01.590Z,966.99
2019-04-07T14:30:01.480Z,967.04
2019-04-07T14:35:02.208Z,967.10
2019-04-07T14:40:01.911Z,967.08
2019-04-07T14:45:01.945Z,967.12
2019-04-07T14:50:02.015Z,967.15
2019-04-07T14:55:01.663Z,967.09
2019-04-07T15:00:02.071Z,967.11
2019-04-07T15:05:01.124Z,967.04
2019-04-07T15:10:01.100Z,967.12
2019-04-07T15:15:05.539Z,967.27
2019-04-07T15:20:01.487Z,967.19
2019-04-07T15:25:01.456Z,967.15
2019-04-07T15:30:02.244Z,967.15
2019-04-07T15:35:02.223Z,967.19
2019-04-07T15:40:03.661Z,967.25
2019-04-07T15:45:01.167Z,967.18
2019-04-07T15:50:01.135Z,967.29
2019-04-07T15:55:02.003Z,967.26
2019-04-07T16:00:03.107Z,967.31
2019-04-07T16:05:03.283Z,967.43
2019-04-07T16:10:01.915Z,967.41
2019-04-07T16:15:02.087Z,967.51
2019-04-07T16:20:01.740Z,967.56
2019-04-07T16:25:01.763Z,967.56
2019-04-07T16:30:01.246Z,967.65
2019-04-07T16:35:01.729Z,967.64
2019-04-07T16:40:06.283Z,967.58
2019-04-07T16:45:01.742Z,967.52
2019-04-07T16:50:01.218Z,967.50
2019-04-07T16:55:01.067Z,967.50
2019-04-07T17:00:01.589Z,967.43
2019-04-07T17:05:01.612Z,967.46
2019-04-07T17:10:03.506Z,967.43
2019-04-07T17:15:04.575Z,967.30
2019-04-07T17:20:01.287Z,967.35
2019-04-07T17:25:04.151Z,967.45
2019-04-07T17:30:01.761Z,967.38
2019-04-07T17:35:02.190Z,967.38
2019-04-07T17:40:01.473Z,967.38
2019-04-07T17:45:01.455Z,967.44
2019-04-07T17:50:01.061Z,967.41
2019-04-07T17:55:01.035Z,967.51
2019-04-07T18:00:01.821Z,967.48
2019-04-07T18:05:01.261Z,967.53
2019-04-07T18:10:01.500Z,967.65
2019-04-07T18:15:06.418Z,967.61
2019-04-07T18:20:04.378Z,967.69
2019-04-07T18:25:02.732Z,967.76
2019-04-07T18:30:02.012Z,967.85
2019-04-07T18:35:01.232Z,967.80
2019-04-07T18:40:02.485Z,967.81
2019-04-07T18:45:01.730Z,967.78
2019-04-07T18:50:07.135Z,967.84
2019-04-07T18:55:05.745Z,967.79
2019-04-07T19:00:03.011Z,967.82
2019-04-07T19:05:01.902Z,967.78
2019-04-07T19:10:08.690Z,967.84
2019-04-07T19:15:03.760Z,967.84
2019-04-07T19:20:01.120Z,967.88
2019-04-07T19:25:05.187Z,967.95
2019-04-07T19:30:01.749Z,967.96
2019-04-07T19:35:02.757Z,967.99
2019-04-07T19:40:02.787Z,968.09
2019-04-07T19:45:04.267Z,968.09
2019-04-07T19:50:01.077Z,968.18
2019-04-07T19:55:01.572Z,968.13
2019-04-07T20:00:01.074Z,968.08
2019-04-07T20:05:01.056Z,968.05
2019-04-07T20:10:01.304Z,968.12
2019-04-07T20:15:06.598Z,968.07
2019-04-07T20:20:02.193Z,968.11
2019-04-07T20:25:01.146Z,968.09
2019-04-07T20:30:01.069Z,968.10
2019-04-07T20:35:01.250Z,968.06
2019-04-07T20:40:03.538Z,968.21
2019-04-07T20:45:05.286Z,968.23
2019-04-07T20:50:01.202Z,968.24
2019-04-07T20:55:03.754Z,968.20
2019-04-07T21:00:03.699Z,968.26
2019-04-07T21:05:01.063Z,968.28
2019-04-07T21:10:05.202Z,968.37
2019-04-07T21:15:16.117Z,968.38
2019-04-07T21:20:02.010Z,968.40
2019-04-07T21:25:01.172Z,968.34
2019-04-07T21:30:01.124Z,968.35
2019-04-07T21:35:02.162Z,968.24
2019-04-07T21:40:04.352Z,968.24
2019-04-07T21:45:04.411Z,968.25
2019-04-07T21:50:05.386Z,968.36
2019-04-07T21:55:01.049Z,968.34
2019-04-07T22:00:01.090Z,968.39
2019-04-07T22:05:01.072Z,968.44
2019-04-07T22:10:01.135Z,968.45
2019-04-07T22:15:02.333Z,968.31
2019-04-07T22:20:01.051Z,968.38
2019-04-07T22:25:01.206Z,968.36
2019-04-07T22:30:04.545Z,968.43
2019-04-07T22:35:04.776Z,968.35
2019-04-07T22:40:02.217Z,968.32
2019-04-07T22:45:02.061Z,968.28
2019-04-07T22:50:03.948Z,968.39
2019-04-07T22:55:03.631Z,968.31
2019-04-07T23:00:02.386Z,968.23
2019-04-07T23:05:01.051Z,968.18
2019-04-07T23:10:01.094Z,968.32
2019-04-07T23:15:01.505Z,968.34
2019-04-07T23:20:01.065Z,968.38
2019-04-07T23:25:01.660Z,968.29
2019-04-07T23:30:01.234Z,968.32
2019-04-07T23:35:01.248Z,968.23
2019-04-07T23:40:01.039Z,968.17
2019-04-07T23:45:01.053Z,968.19
2019-04-07T23:50:01.056Z,968.19
2019-04-07T23:55:01.062Z,968.08
